Time;durP1;ratioP1;P1;durP2;ratioP2;P2;SDS_P1;SDS_P2;PMS_P1;PMS_P2;Temp;Humidity;BMP_temperature;BMP_pressure;BME280_temperature;BME280_humidity;BME280_pressure;Samples;Min_cycle;Max_cycle;Signal;HPM_P1;HPM_P2
2022/01/20 00:02:22;;;;;;;5.07;4.17;;;-3.30;99.90;-3.80;96830.00;;;;5001080;28;20442;-85
2022/01/20 00:05:29;;;;;;;4.13;3.73;;;-3.20;99.90;-3.80;96822.00;;;;5002234;28;20956;-84
2022/01/20 00:08:29;;;;;;;6.80;5.13;;;-3.20;99.90;-3.70;96806.00;;;;5002251;28;20431;-84
2022/01/20 00:27:06;;;;;;;2.93;2.53;;;-3.20;99.90;-4.20;96823.00;;;;5010896;28;20949;-84
2022/01/20 00:30:18;;;;;;;3.60;3.17;;;-3.20;99.90;-4.20;96825.00;;;;5010995;28;20421;-84
2022/01/20 00:33:18;;;;;;;8.10;4.13;;;-3.10;99.90;-3.90;96824.00;;;;5013263;28;20833;-83
2022/01/20 00:39:15;;;;;;;1.07;1.07;;;-3.20;99.90;-4.20;96823.00;;;;5011897;28;20429;-84
2022/01/20 00:42:05;;;;;;;4.00;3.40;;;-3.20;99.90;-3.90;96827.00;;;;5005164;28;20979;-84
2022/01/20 00:44:54;;;;;;;4.30;3.10;;;-3.20;99.90;-3.80;96828.00;;;;5005367;28;20836;-83
2022/01/20 00:47:43;;;;;;;7.07;4.23;;;-3.20;99.90;-3.70;96826.00;;;;5011475;28;20436;-84
2022/01/20 00:50:31;;;;;;;5.83;3.50;;;-3.10;99.90;-3.70;96824.00;;;;5011627;28;20426;-84
2022/01/20 00:53:22;;;;;;;4.07;2.97;;;-3.10;99.90;-3.80;96815.00;;;;5012652;28;20990;-83
2022/01/20 00:56:11;;;;;;;4.53;2.90;;;-3.10;99.90;-3.60;96825.00;;;;5002153;28;20460;-83
2022/01/20 00:58:59;;;;;;;3.77;2.97;;;-3.00;99.90;-3.40;96839.00;;;;5011535;28;20450;-84
2022/01/20 01:01:49;;;;;;;5.93;3.10;;;-3.00;99.90;-3.20;96839.00;;;;5011113;28;20464;-84
2022/01/20 01:04:39;;;;;;;5.53;3.30;;;-2.90;99.90;-3.50;96831.00;;;;5009408;28;20476;-84
2022/01/20 01:07:46;;;;;;;4.73;3.07;;;-2.80;99.90;-3.50;96835.00;;;;4999320;28;20502;-84
2022/01/20 01:10:39;;;;;;;3.00;2.67;;;-2.90;99.90;-3.80;96837.00;;;;5010967;28;20432;-84
2022/01/20 01:13:29;;;;;;;5.57;3.33;;;-2.90;99.90;-3.80;96844.00;;;;5011942;28;20452;-84
2022/01/20 01:16:20;;;;;;;3.60;2.87;;;-3.00;99.90;-3.90;96844.00;;;;5012614;28;20429;-84
2022/01/20 01:22:24;;;;;;;4.60;3.37;;;-3.10;99.90;-3.80;96834.00;;;;5000625;28;20463;-84
2022/01/20 01:25:14;;;;;;;5.77;4.17;;;-3.00;99.90;-3.90;96844.00;;;;5011235;28;21134;-84
2022/01/20 01:28:05;;;;;;;3.70;2.53;;;-3.10;99.90;-4.10;96835.00;;;;5013165;28;20441;-83
2022/01/20 01:31:20;;;;;;;5.87;3.40;;;-3.20;99.90;-4.00;96835.00;;;;5012236;28;20448;-83
2022/01/20 01:34:11;;;;;;;3.47;2.50;;;-3.20;99.90;-3.70;96840.00;;;;5013097;28;21028;-83
2022/01/20 01:37:06;;;;;;;4.30;2.70;;;-3.20;99.90;-3.70;96827.00;;;;5012547;28;20425;-84
2022/01/20 01:39:55;;;;;;;4.93;2.63;;;-3.10;99.90;-3.60;96843.00;;;;5013756;28;20433;-84
2022/01/20 01:42:55;;;;;;;4.30;2.67;;;-3.10;99.90;-4.00;96840.00;;;;5013180;28;20500;-84
2022/01/20 01:45:46;;;;;;;3.83;3.13;;;-3.10;99.90;-3.80;96833.00;;;;5010720;28;20472;-84
2022/01/20 01:48:35;;;;;;;3.30;2.50;;;-3.10;99.90;-3.70;96834.00;;;;5011321;28;20949;-84
2022/01/20 01:51:25;;;;;;;4.27;2.43;;;-3.10;99.90;-3.90;96841.00;;;;5012045;28;20785;-84
2022/01/20 01:54:16;;;;;;;4.93;3.90;;;-3.10;99.90;-3.80;96836.00;;;;5009724;28;20456;-84
2022/01/20 01:57:09;;;;;;;3.10;2.90;;;-3.30;99.90;-3.70;96831.00;;;;5010664;28;20425;-84
2022/01/20 01:59:58;;;;;;;3.00;2.70;;;-3.00;99.90;-3.60;96829.00;;;;5008543;28;20440;-84
2022/01/20 02:02:48;;;;;;;2.07;1.90;;;-3.00;99.90;-3.90;96841.00;;;;5008068;28;20516;-84
2022/01/20 02:05:49;;;;;;;3.73;3.33;;;-3.10;99.90;-3.70;96840.00;;;;5000877;28;20481;-84
2022/01/20 02:08:44;;;;;;;5.53;3.50;;;-3.10;99.90;-3.60;96826.00;;;;5006795;28;20417;-83
2022/01/20 02:17:54;;;;;;;15.87;4.33;;;-3.10;99.90;-3.80;96832.00;;;;4998496;28;20429;-83
2022/01/20 02:20:45;;;;;;;5.43;3.43;;;-3.20;99.90;-4.10;96827.00;;;;5009020;28;20433;-83
2022/01/20 02:23:34;;;;;;;9.90;3.93;;;-3.20;99.90;-4.30;96824.00;;;;5009610;28;20449;-84
2022/01/20 02:26:23;;;;;;;3.03;2.73;;;-3.30;99.90;-4.00;96834.00;;;;5008425;28;20502;-84
2022/01/20 02:29:12;;;;;;;4.70;2.80;;;-3.30;99.90;-3.80;96839.00;;;;5009349;28;20429;-83
2022/01/20 02:32:02;;;;;;;3.87;3.47;;;-3.20;99.90;-3.70;96836.00;;;;5008379;28;20448;-84
2022/01/20 02:34:52;;;;;;;2.23;2.13;;;-3.10;99.90;-3.60;96836.00;;;;5009175;28;20453;-84
2022/01/20 02:37:46;;;;;;;4.03;2.47;;;-3.00;99.90;-3.60;96822.00;;;;5009140;28;20938;-84
2022/01/20 02:46:44;;;;;;;2.37;2.17;;;-2.90;99.90;-3.60;96831.00;;;;5008376;28;20864;-84
2022/01/20 02:49:33;;;;;;;3.37;2.23;;;-2.80;99.90;-3.60;96830.00;;;;4996632;28;20425;-84
2022/01/20 02:52:25;;;;;;;2.70;1.63;;;-2.80;99.90;-3.50;96842.00;;;;5006530;28;20433;-83
2022/01/20 02:55:15;;;;;;;3.30;2.43;;;-1.60;99.90;-3.40;96841.00;;;;5008888;28;20437;-84
2022/01/20 02:58:05;;;;;;;3.60;2.17;;;-2.70;99.90;-3.30;96838.00;;;;5008450;28;20436;-85
2022/01/20 03:00:54;;;;;;;3.90;2.03;;;-2.70;99.90;-3.40;96838.00;;;;5007636;28;20437;-84
2022/01/20 03:03:43;;;;;;;1.67;1.57;;;-2.60;99.90;-3.40;96817.00;;;;5006932;28;20850;-84
2022/01/20 03:06:31;;;;;;;2.13;1.73;;;-2.60;99.90;-3.30;96828.00;;;;5007814;28;20457;-84
2022/01/20 03:09:20;;;;;;;1.53;1.43;;;-2.50;99.90;-3.20;96830.00;;;;4999501;28;20433;-84
2022/01/20 03:12:11;;;;;;;2.47;2.20;;;-2.50;99.90;-3.40;96828.00;;;;5009882;28;21060;-84
2022/01/20 03:15:00;;;;;;;1.17;1.00;;;-2.50;99.90;-3.50;96829.00;;;;5009310;28;20452;-83
2022/01/20 03:17:49;;;;;;;3.17;2.63;;;-2.60;99.90;-3.50;96825.00;;;;5007487;28;20436;-83
2022/01/20 03:20:38;;;;;;;3.70;2.00;;;-2.60;99.90;-3.30;96819.00;;;;5007020;28;20437;-84
2022/01/20 03:23:27;;;;;;;4.57;3.20;;;-2.60;99.90;-3.50;96814.00;;;;5005471;28;20468;-84
2022/01/20 03:26:16;;;;;;;4.27;3.07;;;-2.70;99.90;-3.40;96803.00;;;;4991751;28;20458;-84
2022/01/20 03:29:09;;;;;;;2.20;1.90;;;-2.70;99.90;-3.40;96821.00;;;;5008260;28;20437;-84
2022/01/20 03:31:58;;;;;;;2.63;2.33;;;-2.70;99.90;-3.40;96809.00;;;;5007691;28;20445;-84
2022/01/20 03:34:47;;;;;;;2.93;2.20;;;-2.60;99.90;-3.20;96819.00;;;;5011438;28;20969;-83
2022/01/20 03:37:36;;;;;;;3.00;2.27;;;-2.60;99.90;-3.00;96821.00;;;;5011256;28;20421;-84
2022/01/20 03:40:25;;;;;;;2.57;2.20;;;-2.60;99.90;-3.30;96823.00;;;;4997410;28;20438;-84
2022/01/20 03:43:14;;;;;;;6.73;3.00;;;-2.60;99.90;-3.70;96816.00;;;;5012443;28;21029;-84
2022/01/20 03:46:11;;;;;;;4.17;2.50;;;-2.70;99.90;-3.70;96819.00;;;;5009495;28;20456;-84
2022/01/20 03:49:08;;;;;;;2.40;2.20;;;-2.80;99.90;-3.80;96818.00;;;;5010417;28;20475;-84
2022/01/20 03:51:57;;;;;;;1.83;1.73;;;-2.90;99.90;-4.10;96814.00;;;;5010144;28;20790;-84
2022/01/20 03:54:47;;;;;;;3.07;2.60;;;-2.90;99.90;-3.70;96806.00;;;;5011317;28;20429;-84
2022/01/20 03:57:37;;;;;;;4.50;3.00;;;-2.90;99.90;-3.50;96832.00;;;;5011164;28;20431;-84
2022/01/20 04:00:26;;;;;;;4.30;2.20;;;-2.90;99.90;-3.70;96815.00;;;;5010921;28;20431;-84
2022/01/20 04:03:17;;;;;;;3.57;2.93;;;-3.00;99.90;-3.70;96824.00;;;;5010956;28;20473;-84
2022/01/20 04:06:06;;;;;;;5.50;2.20;;;-3.00;99.90;-3.60;96824.00;;;;5001882;28;20464;-84
2022/01/20 04:08:56;;;;;;;2.20;1.50;;;-3.00;99.90;-3.60;96834.00;;;;4997747;28;20433;-84
2022/01/20 04:11:46;;;;;;;2.73;2.53;;;-3.00;99.90;-3.40;96836.00;;;;5009365;28;20942;-84
2022/01/20 04:14:44;;;;;;;2.90;2.70;;;-2.80;99.90;-3.70;96824.00;;;;5010523;28;20449;-84
2022/01/20 04:17:33;;;;;;;4.87;2.47;;;-2.80;99.90;-3.70;96818.00;;;;5012297;28;20836;-84
2022/01/20 04:20:23;;;;;;;3.03;2.37;;;-2.90;99.90;-3.50;96836.00;;;;5010575;28;20793;-84
2022/01/20 04:23:12;;;;;;;2.73;2.30;;;-2.90;99.90;-3.60;96842.00;;;;5007987;28;20843;-83
2022/01/20 04:26:01;;;;;;;2.73;2.47;;;-2.80;99.90;-3.70;96835.00;;;;4996040;28;20484;-84
2022/01/20 04:28:53;;;;;;;2.70;2.43;;;-3.00;99.90;-3.70;96836.00;;;;5011186;28;20441;-84
2022/01/20 04:31:43;;;;;;;4.67;3.03;;;-3.00;99.90;-3.70;96833.00;;;;5006245;28;20811;-84
2022/01/20 04:34:33;;;;;;;3.20;2.93;;;-3.00;99.90;-3.60;96820.00;;;;5009691;28;20456;-83
2022/01/20 04:37:24;;;;;;;1.53;1.43;;;-3.00;99.90;-3.70;96824.00;;;;5008198;28;20426;-83
2022/01/20 04:40:13;;;;;;;2.03;1.93;;;-3.00;99.90;-4.20;96830.00;;;;5010321;28;20986;-83
2022/01/20 04:43:02;;;;;;;2.00;1.73;;;-3.10;99.90;-4.40;96824.00;;;;5010024;28;20445;-84
2022/01/20 04:45:57;;;;;;;2.87;2.33;;;-3.20;99.90;-3.90;96836.00;;;;5009720;28;20441;-83
2022/01/20 04:49:00;;;;;;;2.37;2.17;;;-3.20;99.90;-3.70;96827.00;;;;5013034;28;20429;-84
2022/01/20 04:58:02;;;;;;;2.50;2.30;;;-3.00;99.90;-3.70;96846.00;;;;5008887;28;21021;-84
2022/01/20 05:00:51;;;;;;;3.37;2.23;;;-3.00;99.90;-3.80;96839.00;;;;5009348;28;20429;-83
2022/01/20 05:03:41;;;;;;;5.33;2.77;;;-3.10;99.90;-3.90;96838.00;;;;5009836;28;20844;-83
2022/01/20 05:06:30;;;;;;;6.23;4.37;;;-3.20;99.90;-4.40;96836.00;;;;5003751;28;20527;-84
2022/01/20 05:09:20;;;;;;;5.50;3.63;;;-3.30;99.90;-4.00;96840.00;;;;5000275;28;20426;-84
2022/01/20 05:12:14;;;;;;;3.33;2.37;;;-3.40;99.90;-3.90;96853.00;;;;5005740;28;20444;-84
2022/01/20 05:15:04;;;;;;;3.00;2.80;;;-3.40;99.90;-3.90;96854.00;;;;5001650;28;20433;-85
2022/01/20 05:17:53;;;;;;;6.90;2.97;;;-3.40;99.90;-4.30;96861.00;;;;5008408;28;21017;-83
2022/01/20 05:20:41;;;;;;;2.80;2.53;;;-3.40;99.90;-4.00;96857.00;;;;5007768;28;20835;-84
2022/01/20 05:23:30;;;;;;;3.23;2.53;;;-3.40;99.90;-3.70;96859.00;;;;5008092;28;20469;-84
2022/01/20 05:26:19;;;;;;;3.57;3.27;;;-2.90;99.90;-3.80;96867.00;;;;4992141;28;20426;-84
2022/01/20 05:29:09;;;;;;;3.57;3.27;;;-3.20;99.90;-4.10;96865.00;;;;4998250;28;20437;-84
2022/01/20 05:31:58;;;;;;;3.50;2.47;;;-3.20;99.90;-4.00;96864.00;;;;5010640;28;20491;-84
2022/01/20 05:34:47;;;;;;;3.43;2.20;;;-3.30;99.90;-3.90;96862.00;;;;5006553;28;20792;-84
2022/01/20 05:37:36;;;;;;;3.13;2.70;;;-3.40;99.90;-3.90;96862.00;;;;5004776;28;20821;-84
2022/01/20 05:40:25;;;;;;;3.83;2.73;;;-3.30;99.90;-4.50;96849.00;;;;4995431;28;20418;-84
2022/01/20 05:43:14;;;;;;;2.97;2.70;;;-3.40;99.90;-4.40;96851.00;;;;5008951;28;20476;-84
2022/01/20 05:46:05;;;;;;;4.30;3.23;;;-3.50;99.90;-4.00;96852.00;;;;5012905;28;20428;-85
2022/01/20 05:48:58;;;;;;;2.80;2.60;;;-3.50;99.90;-4.00;96854.00;;;;5005873;28;20822;-83
2022/01/20 05:51:47;;;;;;;2.73;2.53;;;-2.70;99.90;-4.50;96840.00;;;;5001486;28;20433;-84
2022/01/20 05:54:36;;;;;;;2.17;2.07;;;-3.50;99.90;-4.50;96847.00;;;;4996121;28;20450;-84
2022/01/20 05:57:25;;;;;;;2.47;2.23;;;-3.30;99.90;-4.10;96856.00;;;;4994565;28;20932;-84
2022/01/20 06:00:20;;;;;;;4.20;3.40;;;-3.50;99.90;-3.80;96846.00;;;;4997806;28;20441;-84
2022/01/20 06:06:16;;;;;;;3.70;3.20;;;-3.30;99.90;-4.30;96864.00;;;;5004734;28;20425;-84
2022/01/20 06:09:08;;;;;;;6.20;3.57;;;-3.30;99.90;-4.00;96858.00;;;;5002488;28;20413;-84
2022/01/20 06:11:56;;;;;;;4.00;3.13;;;-3.30;99.90;-3.80;96861.00;;;;4994901;28;20440;-84
2022/01/20 06:14:45;;;;;;;3.90;3.37;;;-3.30;99.90;-3.90;96871.00;;;;5008901;28;20480;-83
2022/01/20 06:17:36;;;;;;;6.50;4.13;;;-3.30;99.90;-4.00;96851.00;;;;5009068;28;20433;-84
2022/01/20 06:20:27;;;;;;;4.00;3.00;;;-3.30;99.90;-4.00;96846.00;;;;4997512;28;20825;-84
2022/01/20 06:23:17;;;;;;;4.93;3.93;;;-3.30;99.90;-3.80;96840.00;;;;5006798;28;20479;-84
2022/01/20 06:26:05;;;;;;;2.93;2.57;;;-3.30;99.90;-4.00;96844.00;;;;4998778;28;20796;-84
2022/01/20 06:28:54;;;;;;;3.57;2.60;;;-3.30;99.90;-4.40;96834.00;;;;5001567;28;20481;-84
2022/01/20 06:31:44;;;;;;;3.20;2.80;;;-3.40;99.90;-4.00;96853.00;;;;5004909;28;20437;-84
2022/01/20 06:34:33;;;;;;;3.03;2.63;;;-3.20;99.90;-3.70;96856.00;;;;4998334;28;20592;-84
2022/01/20 06:37:23;;;;;;;6.20;3.73;;;-3.30;99.90;-3.50;96852.00;;;;4996236;28;20507;-85
2022/01/20 06:40:14;;;;;;;6.60;5.13;;;-3.20;99.90;-3.70;96843.00;;;;4990774;28;20434;-84
2022/01/20 06:43:03;;;;;;;7.50;4.67;;;-3.10;99.90;-3.80;96834.00;;;;4999704;28;20445;-84
2022/01/20 06:45:52;;;;;;;4.60;4.00;;;-3.10;99.90;-3.70;96842.00;;;;4999025;28;20444;-84
2022/01/20 06:48:41;;;;;;;7.53;4.00;;;-3.10;99.90;-3.90;96849.00;;;;5008420;28;20476;-84
2022/01/20 06:51:30;;;;;;;4.37;3.90;;;-3.10;99.90;-3.60;96826.00;;;;5006283;28;20426;-84
2022/01/20 06:54:20;;;;;;;6.37;3.87;;;-3.10;99.90;-3.40;96830.00;;;;5008809;28;20468;-84
2022/01/20 06:57:09;;;;;;;3.83;3.43;;;-3.10;99.90;-3.60;96821.00;;;;5006999;28;20448;-85
2022/01/20 06:59:57;;;;;;;3.63;2.97;;;-2.80;99.90;-3.50;96831.00;;;;4995473;28;20816;-85
2022/01/20 07:02:47;;;;;;;5.70;3.63;;;-3.00;99.90;-3.60;96815.00;;;;5000946;28;20457;-84
2022/01/20 07:05:46;;;;;;;7.67;4.27;;;-3.00;99.90;-3.50;96837.00;;;;5002178;28;20417;-85
2022/01/20 07:08:35;;;;;;;6.83;4.63;;;-1.90;99.90;-3.40;96828.00;;;;5007106;28;21005;-84
2022/01/20 07:11:25;;;;;;;9.90;5.53;;;-3.00;99.90;-3.30;96830.00;;;;4999667;28;20453;-84
2022/01/20 07:14:14;;;;;;;13.23;6.13;;;-2.90;99.90;-3.40;96818.00;;;;5003550;28;20976;-84
2022/01/20 07:17:04;;;;;;;23.97;15.93;;;-2.90;99.90;-3.40;96820.00;;;;5006524;28;20421;-84
2022/01/20 07:19:53;;;;;;;27.80;18.03;;;-2.80;99.90;-3.20;96819.00;;;;5000771;28;20821;-84
2022/01/20 07:22:42;;;;;;;20.73;15.97;;;-2.90;99.90;-3.10;96820.00;;;;5001298;28;20429;-84
2022/01/20 07:25:31;;;;;;;32.43;18.20;;;-2.80;99.90;-3.30;96820.00;;;;4998500;28;20438;-84
2022/01/20 07:28:21;;;;;;;5.87;5.00;;;-2.80;99.90;-3.10;96825.00;;;;4995353;28;20472;-85
2022/01/20 07:31:11;;;;;;;6.77;4.63;;;-2.70;99.90;-2.90;96824.00;;;;4999594;28;20432;-86
2022/01/20 07:33:59;;;;;;;5.93;5.00;;;-2.60;99.90;-2.70;96835.00;;;;5007431;28;20445;-85
2022/01/20 07:36:48;;;;;;;11.80;4.30;;;-2.50;99.90;-2.50;96825.00;;;;4997837;28;20440;-85
2022/01/20 07:39:37;;;;;;;3.77;3.40;;;-2.40;99.90;-2.50;96816.00;;;;5006496;28;20697;-85
2022/01/20 07:42:26;;;;;;;6.27;4.83;;;-2.30;99.90;-2.40;96827.00;;;;5007657;28;20436;-85
2022/01/20 07:45:17;;;;;;;5.23;4.73;;;-2.20;99.90;-2.00;96830.00;;;;4995899;28;20437;-85
2022/01/20 07:48:07;;;;;;;5.23;4.30;;;-0.90;99.90;-1.80;96827.00;;;;4994199;28;20477;-85
2022/01/20 07:50:56;;;;;;;5.07;3.67;;;-1.90;99.90;-2.00;96830.00;;;;4994924;28;20442;-85
2022/01/20 07:53:45;;;;;;;4.93;4.50;;;-1.80;99.90;-1.70;96831.00;;;;4997281;28;20503;-84
2022/01/20 07:56:34;;;;;;;3.60;3.13;;;-1.70;99.90;-1.90;96828.00;;;;4996791;28;20456;-84
2022/01/20 07:59:24;;;;;;;7.07;4.50;;;-1.60;99.90;-2.00;96820.00;;;;5000037;28;20429;-85
2022/01/20 08:02:16;;;;;;;6.30;3.77;;;-1.50;99.90;-1.70;96827.00;;;;4998763;28;20437;-84
2022/01/20 08:05:06;;;;;;;5.37;4.33;;;-1.50;99.90;-1.40;96817.00;;;;5000040;28;20461;-84
2022/01/20 08:07:54;;;;;;;4.70;3.73;;;-1.40;99.90;-1.20;96818.00;;;;4997148;28;20465;-84
2022/01/20 08:10:43;;;;;;;5.13;3.63;;;-1.20;99.90;-1.10;96815.00;;;;5000757;28;20429;-84
2022/01/20 08:13:32;;;;;;;6.20;3.40;;;-1.10;99.90;-1.10;96822.00;;;;5006408;28;20441;-84
2022/01/20 08:16:21;;;;;;;3.33;3.07;;;-1.00;99.90;-1.20;96823.00;;;;5003244;28;20461;-85
2022/01/20 08:19:11;;;;;;;5.77;2.93;;;-0.90;99.90;-1.10;96823.00;;;;5000024;28;20446;-84
2022/01/20 08:22:00;;;;;;;4.43;2.93;;;-0.80;99.90;-1.00;96817.00;;;;5000017;28;20428;-85
2022/01/20 08:24:52;;;;;;;4.70;3.00;;;-0.80;99.90;-0.80;96820.00;;;;5011085;28;20468;-85
2022/01/20 08:27:43;;;;;;;4.90;3.50;;;-0.70;99.90;-0.70;96827.00;;;;5010651;28;20436;-85
2022/01/20 08:30:32;;;;;;;3.87;2.90;;;-0.60;99.90;-0.90;96824.00;;;;5009262;28;20437;-85
2022/01/20 08:33:21;;;;;;;6.63;3.70;;;-0.60;99.90;-0.80;96832.00;;;;5009688;28;20828;-85
2022/01/20 08:36:11;;;;;;;4.53;3.73;;;-0.30;99.90;-0.80;96816.00;;;;5008830;28;20437;-84
2022/01/20 08:39:00;;;;;;;6.63;4.17;;;-0.50;99.90;-0.70;96821.00;;;;5009871;28;20433;-85
2022/01/20 08:41:49;;;;;;;8.70;4.40;;;-0.30;99.90;-0.60;96834.00;;;;5009893;28;20809;-84
2022/01/20 08:44:38;;;;;;;6.53;4.37;;;-0.20;99.90;-0.50;96825.00;;;;5005457;28;20449;-85
2022/01/20 08:47:26;;;;;;;6.50;4.10;;;-0.40;99.90;-0.40;96827.00;;;;5010145;28;20429;-85
2022/01/20 08:50:16;;;;;;;4.77;4.13;;;-0.30;99.90;-0.20;96827.00;;;;5009839;28;20429;-84
2022/01/20 08:53:08;;;;;;;4.63;3.70;;;-0.20;99.90;-0.10;96816.00;;;;5010406;28;20958;-84
2022/01/20 08:55:57;;;;;;;4.43;3.80;;;-0.10;99.90;-0.10;96804.00;;;;5004844;28;20790;-85
2022/01/20 08:58:49;;;;;;;8.07;5.20;;;0.40;99.90;0.10;96827.00;;;;5005134;28;20429;-85
2022/01/20 09:01:41;;;;;;;6.40;4.47;;;0.10;99.90;0.20;96815.00;;;;5004196;28;20410;-86
2022/01/20 09:04:33;;;;;;;7.40;3.97;;;0.50;99.90;0.20;96810.00;;;;5000685;28;20469;-85
2022/01/20 09:07:22;;;;;;;6.10;3.97;;;0.40;99.90;0.10;96806.00;;;;5002220;28;20441;-85
2022/01/20 09:10:19;;;;;;;7.10;4.83;;;0.50;99.90;0.10;96800.00;;;;5002204;28;20465;-84
2022/01/20 09:16:15;;;;;;;8.40;5.40;;;1.50;99.90;-0.20;96788.00;;;;5002691;28;20422;-85
2022/01/20 09:19:04;;;;;;;20.17;10.13;;;1.00;99.90;-0.20;96794.00;;;;5004348;28;20442;-85
2022/01/20 09:21:54;;;;;;;16.33;8.97;;;0.40;99.90;0.30;96800.00;;;;5003625;28;20598;-84
2022/01/20 09:24:45;;;;;;;14.43;7.13;;;0.70;99.90;0.50;96788.00;;;;5000119;28;20451;-85
2022/01/20 09:27:36;;;;;;;12.40;6.97;;;0.80;99.90;0.50;96777.00;;;;5005369;28;20422;-84
2022/01/20 09:30:26;;;;;;;3.50;3.20;;;0.70;99.90;0.40;96780.00;;;;5003543;28;20476;-85
2022/01/20 09:33:24;;;;;;;9.07;6.33;;;0.70;99.90;0.80;96779.00;;;;5003465;28;20450;-85
2022/01/20 09:36:13;;;;;;;8.27;3.73;;;1.50;99.90;1.20;96772.00;;;;5002439;28;20465;-84
2022/01/20 09:39:02;;;;;;;5.57;2.80;;;1.80;99.90;1.50;96796.00;;;;5007395;28;20422;-85
2022/01/20 09:41:51;;;;;;;6.43;3.50;;;1.20;99.90;1.80;96803.00;;;;5011902;28;20429;-85
2022/01/20 09:44:46;;;;;;;4.10;3.53;;;1.40;99.90;2.10;96808.00;;;;5011306;28;20997;-84
2022/01/20 09:47:36;;;;;;;9.63;3.67;;;2.00;99.90;1.80;96809.00;;;;5005286;28;20965;-84
2022/01/20 09:50:28;;;;;;;10.50;4.23;;;1.90;99.90;1.80;96807.00;;;;5003393;28;20856;-85
2022/01/20 09:53:17;;;;;;;6.77;4.77;;;1.90;99.90;1.90;96809.00;;;;5003128;28;20732;-84
2022/01/20 09:56:07;;;;;;;12.53;4.73;;;1.90;99.90;1.70;96819.00;;;;5002987;28;20472;-84
2022/01/20 09:58:57;;;;;;;9.53;5.50;;;2.00;99.90;1.60;96802.00;;;;4997596;28;20432;-85
2022/01/20 10:01:52;;;;;;;7.47;5.33;;;1.90;99.90;1.70;96797.00;;;;5008005;28;20791;-85
2022/01/20 10:04:43;;;;;;;12.50;4.93;;;2.00;99.90;2.00;96803.00;;;;5001585;28;20444;-86
2022/01/20 10:07:35;;;;;;;12.90;5.17;;;1.90;99.90;2.20;96792.00;;;;5008136;28;20954;-85
2022/01/20 10:10:24;;;;;;;12.57;7.60;;;2.00;99.90;1.70;96777.00;;;;4997633;28;20464;-85
2022/01/20 10:13:15;;;;;;;13.83;7.07;;;1.80;99.90;1.90;96771.00;;;;5011422;28;20453;-86
2022/01/20 10:16:07;;;;;;;10.00;6.73;;;2.10;99.90;1.80;96776.00;;;;5003046;28;20430;-86
2022/01/20 10:19:00;;;;;;;15.50;8.13;;;2.30;99.90;2.00;96768.00;;;;5006774;28;20429;-84
2022/01/20 10:21:48;;;;;;;13.87;7.77;;;2.10;99.90;2.00;96761.00;;;;5004172;28;20509;-83
2022/01/20 10:24:38;;;;;;;15.03;7.33;;;2.10;99.90;2.30;96773.00;;;;5001511;28;20441;-82
2022/01/20 10:27:27;;;;;;;11.90;7.47;;;2.30;99.90;2.60;96764.00;;;;5003812;28;20433;-82
2022/01/20 10:30:17;;;;;;;19.50;7.83;;;2.40;99.90;2.70;96761.00;;;;5003184;28;20476;-82
2022/01/20 10:33:05;;;;;;;7.87;6.43;;;2.60;99.90;3.00;96754.00;;;;5001392;28;20454;-82
2022/01/20 10:35:55;;;;;;;10.53;5.73;;;2.80;99.90;3.10;96746.00;;;;5005119;28;20430;-82
2022/01/20 10:38:52;;;;;;;12.17;6.13;;;2.90;99.90;3.60;96742.00;;;;5008051;28;20425;-82
2022/01/20 10:41:41;;;;;;;6.83;5.13;;;3.20;99.90;4.00;96756.00;;;;4997984;28;20902;-82
2022/01/20 10:44:43;;;;;;;12.60;6.17;;;3.50;99.90;4.00;96745.00;;;;5007668;28;20441;-82
2022/01/20 10:47:48;;;;;;;9.17;6.57;;;3.70;99.90;4.10;96723.00;;;;5000780;28;20667;-83
2022/01/20 10:50:39;;;;;;;12.60;7.20;;;3.80;99.90;4.20;96726.00;;;;5006858;28;20222;-83
2022/01/20 10:53:30;;;;;;;11.87;6.37;;;4.00;99.90;4.50;96739.00;;;;5002593;28;20234;-83
2022/01/20 10:56:18;;;;;;;15.13;7.40;;;4.20;99.90;4.10;96736.00;;;;5008605;28;20272;-83
2022/01/20 10:59:08;;;;;;;12.83;7.73;;;4.30;99.90;3.30;96718.00;;;;5008448;28;20217;-83
2022/01/20 11:02:03;;;;;;;10.47;6.73;;;4.20;99.90;3.50;96714.00;;;;5003930;28;20209;-83
2022/01/20 11:04:53;;;;;;;14.83;6.43;;;4.00;99.90;3.80;96717.00;;;;4997325;28;20206;-83
2022/01/20 11:07:43;;;;;;;12.27;7.00;;;3.90;99.90;3.80;96706.00;;;;4997387;28;20437;-82
2022/01/20 11:10:33;;;;;;;13.53;7.77;;;3.80;99.90;3.90;96719.00;;;;5002575;28;20226;-83
2022/01/20 11:13:22;;;;;;;12.30;7.53;;;3.90;99.90;3.80;96714.00;;;;5001082;28;20230;-83
2022/01/20 11:16:11;;;;;;;20.87;8.13;;;3.90;99.90;3.50;96698.00;;;;5000459;28;20595;-83
2022/01/20 11:19:00;;;;;;;12.63;7.00;;;3.90;99.90;3.70;96712.00;;;;5008944;28;20205;-83
2022/01/20 11:21:50;;;;;;;15.87;6.43;;;3.90;99.90;4.00;96714.00;;;;5007557;28;20202;-83
2022/01/20 11:24:41;;;;;;;16.20;7.97;;;3.90;99.90;4.20;96700.00;;;;5007660;28;20221;-83
2022/01/20 11:27:41;;;;;;;18.00;7.73;;;3.90;99.90;4.30;96695.00;;;;5001742;28;20217;-83
2022/01/20 11:30:32;;;;;;;14.13;6.67;;;4.00;99.90;3.90;96689.00;;;;5008024;28;20226;-84
2022/01/20 11:33:26;;;;;;;13.30;6.93;;;4.10;99.90;4.00;96690.00;;;;5007375;28;20372;-84
2022/01/20 11:36:24;;;;;;;12.07;8.07;;;4.10;99.90;4.30;96689.00;;;;4995246;28;20241;-84
2022/01/20 11:39:29;;;;;;;18.80;7.90;;;4.10;99.90;4.50;96702.00;;;;4997491;28;20208;-84
2022/01/20 11:42:24;;;;;;;21.70;8.63;;;4.20;99.90;4.40;96681.00;;;;5007868;28;20194;-84
2022/01/20 11:45:32;;;;;;;29.93;9.33;;;4.20;99.90;4.60;96664.00;;;;5029642;28;20444;-84
2022/01/20 11:48:24;;;;;;;10.37;7.13;;;4.30;99.90;4.10;96661.00;;;;5001476;28;20206;-84
2022/01/20 11:51:13;;;;;;;16.50;7.43;;;4.40;99.90;4.50;96670.00;;;;4997149;28;20233;-84
2022/01/20 11:54:06;;;;;;;21.30;7.63;;;4.40;99.90;4.40;96665.00;;;;5009310;28;20700;-84
2022/01/20 11:57:10;;;;;;;12.40;6.23;;;4.40;99.90;4.80;96673.00;;;;5011017;28;20226;-84
2022/01/20 12:00:02;;;;;;;12.50;7.40;;;4.60;99.90;5.20;96671.00;;;;5010492;28;20193;-84
2022/01/20 12:02:53;;;;;;;12.10;6.87;;;4.80;99.90;5.10;96680.00;;;;5010305;28;20230;-84
2022/01/20 12:05:42;;;;;;;14.83;6.93;;;4.90;99.90;4.80;96675.00;;;;5000105;28;20213;-83
2022/01/20 12:08:32;;;;;;;21.73;7.20;;;5.00;99.90;4.40;96679.00;;;;5010547;28;20210;-84
2022/01/20 12:11:22;;;;;;;17.67;8.53;;;4.90;99.90;4.90;96670.00;;;;5009611;28;20229;-84
2022/01/20 12:14:11;;;;;;;19.43;7.07;;;4.80;99.90;4.90;96666.00;;;;4995016;28;20691;-84
2022/01/20 12:17:06;;;;;;;21.40;6.90;;;4.80;99.90;4.90;96667.00;;;;4999828;28;20202;-84
2022/01/20 12:19:57;;;;;;;36.53;8.57;;;4.80;99.90;4.80;96655.00;;;;5008916;28;20208;-84
2022/01/20 12:22:47;;;;;;;15.97;6.90;;;4.70;99.90;4.80;96645.00;;;;5002544;28;20221;-84
2022/01/20 12:25:37;;;;;;;17.07;8.10;;;4.70;99.90;4.70;96647.00;;;;5008324;28;20510;-84
2022/01/20 12:28:28;;;;;;;18.47;7.07;;;4.70;99.90;4.60;96649.00;;;;5010694;28;20206;-84
2022/01/20 12:31:18;;;;;;;10.17;7.17;;;4.60;99.90;4.70;96639.00;;;;5000542;28;20226;-84
2022/01/20 12:34:12;;;;;;;11.23;6.17;;;4.70;99.90;4.80;96637.00;;;;4994348;28;20297;-84
2022/01/20 12:37:02;;;;;;;12.30;6.87;;;4.70;99.90;4.90;96632.00;;;;5009711;28;20699;-84
2022/01/20 12:39:51;;;;;;;13.90;6.40;;;4.70;99.90;4.90;96616.00;;;;5009344;28;20201;-84
2022/01/20 12:42:42;;;;;;;4.93;3.27;;;4.70;99.90;4.90;96559.00;;;;5010238;28;20206;-84
2022/01/20 12:48:37;;;;;;;5.27;3.20;;;5.00;99.90;5.60;96590.00;;;;5005807;28;20628;-84
2022/01/20 12:51:35;;;;;;;4.83;3.33;;;5.30;99.90;7.10;96564.00;;;;5009122;28;20230;-84
2022/01/20 12:54:29;;;;;;;7.63;3.80;;;5.90;99.90;7.90;96604.00;;;;5010302;28;20727;-85
2022/01/20 12:57:19;;;;;;;22.07;4.03;;;6.70;99.90;8.40;96566.00;;;;5009196;28;20561;-85
2022/01/20 13:00:11;;;;;;;3.20;2.40;;;7.40;99.90;9.70;96563.00;;;;5009407;28;20256;-85
2022/01/20 13:03:00;;;;;;;8.00;2.80;;;8.30;99.90;8.80;96593.00;;;;5003612;28;20237;-84
2022/01/20 13:05:52;;;;;;;18.13;3.70;;;8.80;96.00;10.20;96583.00;;;;4996939;28;20209;-84
2022/01/20 13:08:42;;;;;;;7.83;2.33;;;9.30;95.40;10.90;96537.00;;;;5009422;28;20723;-85
2022/01/20 13:11:40;;;;;;;7.73;1.33;;;9.90;93.00;11.00;96608.00;;;;5002751;28;20816;-84
2022/01/20 13:14:39;;;;;;;15.60;1.73;;;10.50;89.50;9.50;96586.00;;;;5001413;28;20217;-84
2022/01/20 13:17:30;;;;;;;4.60;1.73;;;10.60;80.70;8.90;96538.00;;;;5000946;28;20210;-84
2022/01/20 13:20:23;;;;;;;5.20;1.07;;;10.10;75.70;8.80;96597.00;;;;5008720;28;20213;-84
2022/01/20 13:26:15;;;;;;;11.17;2.43;;;9.30;74.90;8.00;96588.00;;;;5002079;28;20229;-84
2022/01/20 13:29:07;;;;;;;2.27;0.60;;;8.70;75.00;7.70;96581.00;;;;5001824;28;20198;-85
2022/01/20 13:31:59;;;;;;;0.60;0.50;;;8.30;67.70;8.30;96514.00;;;;4990103;28;20222;-84
2022/01/20 13:34:57;;;;;;;0.20;0.20;;;8.30;63.60;9.80;96602.00;;;;5009232;28;20592;-84
2022/01/20 13:37:48;;;;;;;15.03;3.80;;;9.10;61.00;10.30;96544.00;;;;5009361;28;20202;-89